Ana Sayfa
METAR-TAF:

METAR-TAF

Havaalanları :

Camdenton, Missouri, Amerika Birleşik Devletleri

Enlem: 37-58-26N, Boylam: 092-41-28W, yükseklik: 324 m

Güncel hava durumu gözlemi

Rapor saat 12:55 UTC de 5 dakika önce yapıldı.
Rüzgar doğu/güneydoğudan 5 kt
Sıcaklık 17°C
Nem 100%
Basınç 1013 hPa
Görüş mesafesi: 16.1 km
1000 ft yükseklikte parçalı çok bulutlu
1700 ft yükseklikte çok bulutlu

METAR: KOZS 231255Z AUTO 12005KT 10SM BKN010 OVC017 17/17 A2990 RMK AO2 LTG DSNT SE

Saat: 08:00 (13:00 UTC)


TAF: eksik

4.000'den fazla havaalanı için hava durumu gözlemleri ve tahminleri (METAR ve TAF raporları).

Kullanılabilir istasyonlar harita üzerinde sarı ve kırmızı noktalarla gösterilir.

İstasyonun adını görmek için fareyi noktanın üzerinde gezdirin.

Sonrasında hava gözlem ve tahminlerini görmek için tıklayın.

Haritayı değiştirmek için: yaklaştırmak için siyah artı işaretli yeşil düğmeye ve uzaklaştırmak için de eksi işaretli düğmeye hızla tıklayın; bitişik haritalar için yeşil okları kullanın.


METAR-TAF: